Time,TemperatureF,DewpointF,PressureIn,WindDirection,WindDirectionDegrees,WindSpeedMPH,WindSpeedGustMPH,Humidity,HourlyPrecipIn,Conditions,Clouds,dailyrainin,SolarRadiationWatts/m^2,SoftwareType,DateUTC
2013-04-17 00:00:00,40.0,36.0,-100.00,NNE,22,7.0,-999.0,84,-99.99,,,-99.99,0.000000,,2013-04-17 04:00:00,
2013-04-17 00:43:00,40.0,36.0,-100.00,NNE,22,7.0,-999.0,84,-99.99,,,-99.99,0.000000,,2013-04-17 04:43:00,
2013-04-17 00:53:00,40.0,36.0,-100.00,NNE,22,7.0,-999.0,84,-99.99,,,-99.99,0.000000,,2013-04-17 04:53:00,
2013-04-17 01:00:00,41.0,34.0,-100.00,NE,45,7.0,-999.0,76,-99.99,,,-99.99,0.000000,,2013-04-17 05:00:00,
2013-04-17 01:43:00,41.0,34.0,-100.00,NE,45,7.0,-999.0,76,-99.99,,,-99.99,0.000000,,2013-04-17 05:43:00,
2013-04-17 01:52:00,41.0,34.0,-100.00,NE,45,7.0,-999.0,76,-99.99,,,-99.99,0.000000,,2013-04-17 05:52:00,
2013-04-17 02:00:00,39.0,33.0,-100.00,NE,45,5.0,-999.0,78,-99.99,,,-99.99,0.000000,,2013-04-17 06:00:00,
2013-04-17 02:42:00,39.0,33.0,-100.00,NE,45,5.0,-999.0,78,-99.99,,,-99.99,0.000000,,2013-04-17 06:42:00,
2013-04-17 02:52:00,39.0,33.0,-100.00,NE,45,5.0,-999.0,78,-99.99,,,-99.99,0.000000,,2013-04-17 06:52:00,
2013-04-17 03:00:00,39.0,33.0,-100.00,NE,45,5.0,-999.0,79,-99.99,,,-99.99,0.000000,,2013-04-17 07:00:00,
2013-04-17 03:42:00,39.0,33.0,-100.00,NE,45,5.0,-999.0,79,-99.99,,,-99.99,0.000000,,2013-04-17 07:42:00,
2013-04-17 03:52:00,39.0,33.0,-100.00,NE,45,5.0,-999.0,79,-99.99,,,-99.99,0.000000,,2013-04-17 07:52:00,
2013-04-17 04:00:00,39.0,34.0,-100.00,NE,45,4.0,-999.0,79,-99.99,,,-99.99,0.000000,,2013-04-17 08:00:00,
2013-04-17 04:42:00,39.0,34.0,-100.00,NE,45,4.0,-999.0,79,-99.99,,,-99.99,0.000000,,2013-04-17 08:42:00,
2013-04-17 04:52:00,39.0,34.0,-100.00,NE,45,4.0,-999.0,79,-99.99,,,-99.99,0.000000,,2013-04-17 08:52:00,
2013-04-17 05:00:00,39.0,34.0,-100.00,ENE,67,3.0,-999.0,79,-99.99,,,-99.99,0.000000,,2013-04-17 09:00:00,
2013-04-17 05:42:00,39.0,34.0,-100.00,ENE,67,3.0,-999.0,79,-99.99,,,-99.99,0.000000,,2013-04-17 09:42:00,
2013-04-17 05:53:00,39.0,34.0,-100.00,ENE,67,3.0,-999.0,79,-99.99,,,-99.99,0.000000,,2013-04-17 09:53:00,
2013-04-17 06:00:00,38.0,34.0,-100.00,ENE,67,1.0,-999.0,83,-99.99,,,-99.99,0.000000,,2013-04-17 10:00:00,
2013-04-17 06:43:00,38.0,34.0,-100.00,ENE,67,1.0,-999.0,83,-99.99,,,-99.99,0.000000,,2013-04-17 10:43:00,
2013-04-17 06:53:00,38.0,34.0,-100.00,ENE,67,1.0,-999.0,83,-99.99,,,-99.99,0.000000,,2013-04-17 10:53:00,
2013-04-17 07:00:00,37.0,33.0,-100.00,NE,45,4.0,-999.0,84,-99.99,,,-99.99,2.320000,,2013-04-17 11:00:00,
2013-04-17 07:42:00,37.0,33.0,-100.00,NE,45,4.0,-999.0,84,-99.99,,,-99.99,2.320000,,2013-04-17 11:42:00,
2013-04-17 07:52:00,37.0,33.0,-100.00,NE,45,4.0,-999.0,84,-99.99,,,-99.99,2.320000,,2013-04-17 11:52:00,
2013-04-17 08:00:00,38.0,33.0,-100.00,NNE,22,6.0,-999.0,80,-99.99,,,-99.99,76.559998,,2013-04-17 12:00:00,
2013-04-17 08:42:00,38.0,33.0,-100.00,NNE,22,6.0,-999.0,80,-99.99,,,-99.99,76.559998,,2013-04-17 12:42:00,
2013-04-17 08:52:00,38.0,33.0,-100.00,NNE,22,6.0,-999.0,80,-99.99,,,-99.99,76.559998,,2013-04-17 12:52:00,
2013-04-17 09:00:00,41.0,33.0,-100.00,NE,45,9.0,-999.0,73,-99.99,,,-99.99,233.160004,,2013-04-17 13:00:00,
2013-04-17 09:42:00,41.0,33.0,-100.00,NE,45,9.0,-999.0,73,-99.99,,,-99.99,233.160004,,2013-04-17 13:42:00,
2013-04-17 09:52:00,41.0,33.0,-100.00,NE,45,9.0,-999.0,73,-99.99,,,-99.99,233.160004,,2013-04-17 13:52:00,
2013-04-17 10:00:00,41.0,34.0,-100.00,ENE,67,9.0,-999.0,75,-99.99,,,-99.99,341.040009,,2013-04-17 14:00:00,
2013-04-17 10:43:00,41.0,34.0,-100.00,ENE,67,9.0,-999.0,75,-99.99,,,-99.99,341.040009,,2013-04-17 14:43:00,
2013-04-17 10:52:00,41.0,34.0,-100.00,ENE,67,9.0,-999.0,75,-99.99,,,-99.99,341.040009,,2013-04-17 14:52:00,
2013-04-17 11:00:00,43.0,35.0,-100.00,NE,45,9.0,-999.0,74,-99.99,,,-99.99,495.320007,,2013-04-17 15:00:00,
2013-04-17 11:43:00,43.0,35.0,-100.00,NE,45,9.0,-999.0,74,-99.99,,,-99.99,495.320007,,2013-04-17 15:43:00,
2013-04-17 11:53:00,43.0,35.0,-100.00,NE,45,9.0,-999.0,74,-99.99,,,-99.99,495.320007,,2013-04-17 15:53:00,
2013-04-17 12:00:00,45.0,36.0,-100.00,NE,45,10.0,-999.0,73,-99.99,,,-99.99,580.000000,,2013-04-17 16:00:00,
2013-04-17 12:42:00,45.0,36.0,-100.00,NE,45,10.0,-999.0,73,-99.99,,,-99.99,580.000000,,2013-04-17 16:42:00,
2013-04-17 12:52:00,45.0,36.0,-100.00,NE,45,10.0,-999.0,73,-99.99,,,-99.99,580.000000,,2013-04-17 16:52:00,
2013-04-17 13:00:00,46.0,38.0,-100.00,NE,45,12.0,-999.0,74,-99.99,,,-99.99,760.960022,,2013-04-17 17:00:00,
2013-04-17 13:42:00,46.0,38.0,-100.00,NE,45,12.0,-999.0,74,-99.99,,,-99.99,760.960022,,2013-04-17 17:42:00,
2013-04-17 13:52:00,46.0,38.0,-100.00,NE,45,12.0,-999.0,74,-99.99,,,-99.99,760.960022,,2013-04-17 17:52:00,
2013-04-17 14:00:00,47.0,39.0,-100.00,NE,45,10.0,-999.0,72,-99.99,,,-99.99,660.039978,,2013-04-17 18:00:00,
2013-04-17 14:42:00,47.0,39.0,-100.00,NE,45,10.0,-999.0,72,-99.99,,,-99.99,660.039978,,2013-04-17 18:42:00,
2013-04-17 14:52:00,47.0,39.0,-100.00,NE,45,10.0,-999.0,72,-99.99,,,-99.99,660.039978,,2013-04-17 18:52:00,
2013-04-17 15:00:00,45.0,39.0,-100.00,NE,45,15.0,-999.0,77,-99.99,,,-99.99,327.119995,,2013-04-17 19:00:00,
2013-04-17 15:42:00,45.0,39.0,-100.00,NE,45,15.0,-999.0,77,-99.99,,,-99.99,327.119995,,2013-04-17 19:42:00,
2013-04-17 15:52:00,45.0,39.0,-100.00,NE,45,15.0,-999.0,77,-99.99,,,-99.99,327.119995,,2013-04-17 19:52:00,
2013-04-17 16:00:00,44.0,38.0,-100.00,NNE,22,12.0,-999.0,79,-99.99,,,-99.99,158.919998,,2013-04-17 20:00:00,
2013-04-17 16:42:00,44.0,38.0,-100.00,NNE,22,12.0,-999.0,79,-99.99,,,-99.99,158.919998,,2013-04-17 20:42:00,
2013-04-17 16:52:00,44.0,38.0,-100.00,NNE,22,12.0,-999.0,79,-99.99,,,-99.99,158.919998,,2013-04-17 20:52:00,
2013-04-17 17:00:00,43.0,38.0,-100.00,NNE,22,14.0,-999.0,83,-99.99,,,-99.99,106.720001,,2013-04-17 21:00:00,
2013-04-17 17:43:00,43.0,38.0,-100.00,NNE,22,14.0,-999.0,83,-99.99,,,-99.99,106.720001,,2013-04-17 21:43:00,
2013-04-17 17:53:00,43.0,38.0,-100.00,NNE,22,14.0,-999.0,83,-99.99,,,-99.99,106.720001,,2013-04-17 21:53:00,
2013-04-17 18:00:00,42.0,38.0,-100.00,NE,45,13.0,-999.0,87,0.09,,,-99.99,26.680000,,2013-04-17 22:00:00,
2013-04-17 18:43:00,42.0,38.0,-100.00,NE,45,13.0,-999.0,87,0.09,,,-99.99,26.680000,,2013-04-17 22:43:00,
2013-04-17 18:53:00,42.0,38.0,-100.00,NE,45,13.0,-999.0,87,0.09,,,-99.99,26.680000,,2013-04-17 22:53:00,
2013-04-17 19:00:00,40.0,38.0,-100.00,NNE,22,16.0,-999.0,92,0.11,,,-99.99,11.600000,,2013-04-17 23:00:00,
2013-04-17 19:42:00,40.0,38.0,-100.00,NNE,22,16.0,-999.0,92,0.11,,,-99.99,11.600000,,2013-04-17 23:42:00,
2013-04-17 19:52:00,40.0,38.0,-100.00,NNE,22,16.0,-999.0,92,0.11,,,-99.99,11.600000,,2013-04-17 23:52:00,
2013-04-17 21:00:00,39.0,38.0,-100.00,NE,45,13.0,-999.0,94,0.09,,,-99.99,0.000000,,2013-04-18 01:00:00,
2013-04-17 21:42:00,39.0,38.0,-100.00,NE,45,13.0,-999.0,94,0.09,,,-99.99,0.000000,,2013-04-18 01:42:00,
2013-04-17 21:52:00,39.0,38.0,-100.00,NE,45,13.0,-999.0,94,0.09,,,-99.99,0.000000,,2013-04-18 01:52:00,
2013-04-17 22:00:00,40.0,38.0,-100.00,NE,45,12.0,-999.0,93,-99.99,,,-99.99,0.000000,,2013-04-18 02:00:00,
2013-04-17 23:00:00,41.0,39.0,-100.00,ENE,67,10.0,-999.0,92,-99.99,,,-99.99,0.000000,,2013-04-18 03:00:00,
2013-04-17 23:43:00,41.0,39.0,-100.00,ENE,67,10.0,-999.0,92,-99.99,,,-99.99,0.000000,,2013-04-18 03:43:00,
2013-04-17 23:53:00,41.0,39.0,-100.00,ENE,67,10.0,-999.0,92,-99.99,,,-99.99,0.000000,,2013-04-18 03:53:00,